sensor_id;sensor_type;location;lat;lon;timestamp;P1;durP1;ratioP1;P2;durP2;ratioP2
6205;SDS011;3136;48.788;9.772;2023-06-19T00:00:10;7.17;;;5.93;;
6205;SDS011;3136;48.788;9.772;2023-06-19T00:02:40;8.13;;;6.03;;
6205;SDS011;3136;48.788;9.772;2023-06-19T00:05:06;7.30;;;5.40;;
6205;SDS011;3136;48.788;9.772;2023-06-19T00:07:33;6.83;;;5.93;;
6205;SDS011;3136;48.788;9.772;2023-06-19T00:09:59;6.47;;;5.87;;
6205;SDS011;3136;48.788;9.772;2023-06-19T00:12:25;6.20;;;5.50;;
6205;SDS011;3136;48.788;9.772;2023-06-19T00:14:50;6.60;;;5.63;;
6205;SDS011;3136;48.788;9.772;2023-06-19T00:17:16;6.60;;;5.67;;
6205;SDS011;3136;48.788;9.772;2023-06-19T00:19:42;7.90;;;5.67;;
6205;SDS011;3136;48.788;9.772;2023-06-19T00:22:08;6.07;;;5.50;;
6205;SDS011;3136;48.788;9.772;2023-06-19T00:24:34;7.63;;;5.50;;
6205;SDS011;3136;48.788;9.772;2023-06-19T00:26:59;7.00;;;5.60;;
6205;SDS011;3136;48.788;9.772;2023-06-19T00:29:31;6.93;;;5.60;;
6205;SDS011;3136;48.788;9.772;2023-06-19T00:31:57;6.17;;;5.57;;
6205;SDS011;3136;48.788;9.772;2023-06-19T00:34:23;8.03;;;5.53;;
6205;SDS011;3136;48.788;9.772;2023-06-19T00:36:50;7.63;;;5.37;;
6205;SDS011;3136;48.788;9.772;2023-06-19T00:39:16;6.80;;;5.80;;
6205;SDS011;3136;48.788;9.772;2023-06-19T00:41:42;8.20;;;5.83;;
6205;SDS011;3136;48.788;9.772;2023-06-19T00:44:09;8.07;;;5.73;;
6205;SDS011;3136;48.788;9.772;2023-06-19T00:46:38;6.87;;;5.80;;
6205;SDS011;3136;48.788;9.772;2023-06-19T00:49:05;6.07;;;5.47;;
6205;SDS011;3136;48.788;9.772;2023-06-19T00:51:32;8.00;;;6.43;;
6205;SDS011;3136;48.788;9.772;2023-06-19T00:53:57;6.57;;;5.53;;
6205;SDS011;3136;48.788;9.772;2023-06-19T00:56:23;10.57;;;6.43;;
6205;SDS011;3136;48.788;9.772;2023-06-19T00:58:48;8.07;;;5.77;;
6205;SDS011;3136;48.788;9.772;2023-06-19T01:01:15;6.27;;;5.67;;
6205;SDS011;3136;48.788;9.772;2023-06-19T01:03:41;7.23;;;6.20;;
6205;SDS011;3136;48.788;9.772;2023-06-19T01:06:08;6.40;;;5.50;;
6205;SDS011;3136;48.788;9.772;2023-06-19T01:08:51;7.07;;;6.10;;
6205;SDS011;3136;48.788;9.772;2023-06-19T01:11:28;6.63;;;5.97;;
6205;SDS011;3136;48.788;9.772;2023-06-19T01:14:15;6.67;;;6.07;;
6205;SDS011;3136;48.788;9.772;2023-06-19T01:16:55;7.50;;;6.30;;
6205;SDS011;3136;48.788;9.772;2023-06-19T01:19:21;10.07;;;6.67;;
6205;SDS011;3136;48.788;9.772;2023-06-19T01:21:47;7.03;;;5.93;;
6205;SDS011;3136;48.788;9.772;2023-06-19T01:24:14;8.73;;;6.20;;
6205;SDS011;3136;48.788;9.772;2023-06-19T01:26:40;6.23;;;5.63;;
6205;SDS011;3136;48.788;9.772;2023-06-19T01:29:06;6.73;;;5.83;;
6205;SDS011;3136;48.788;9.772;2023-06-19T01:31:34;6.90;;;6.30;;
6205;SDS011;3136;48.788;9.772;2023-06-19T01:34:09;6.87;;;6.03;;
6205;SDS011;3136;48.788;9.772;2023-06-19T01:36:37;8.80;;;6.40;;
6205;SDS011;3136;48.788;9.772;2023-06-19T01:39:03;9.33;;;6.27;;
6205;SDS011;3136;48.788;9.772;2023-06-19T01:41:29;6.60;;;5.87;;
6205;SDS011;3136;48.788;9.772;2023-06-19T01:43:55;6.77;;;6.00;;
6205;SDS011;3136;48.788;9.772;2023-06-19T01:46:22;6.80;;;6.10;;
6205;SDS011;3136;48.788;9.772;2023-06-19T01:48:47;6.97;;;6.27;;
6205;SDS011;3136;48.788;9.772;2023-06-19T01:51:13;7.03;;;6.20;;
6205;SDS011;3136;48.788;9.772;2023-06-19T01:53:39;6.57;;;5.97;;
6205;SDS011;3136;48.788;9.772;2023-06-19T01:56:04;6.57;;;5.70;;
6205;SDS011;3136;48.788;9.772;2023-06-19T01:58:30;6.40;;;5.70;;
6205;SDS011;3136;48.788;9.772;2023-06-19T02:00:55;7.03;;;6.33;;
6205;SDS011;3136;48.788;9.772;2023-06-19T02:03:21;7.33;;;5.97;;
6205;SDS011;3136;48.788;9.772;2023-06-19T02:05:46;7.13;;;6.10;;
6205;SDS011;3136;48.788;9.772;2023-06-19T02:08:12;8.83;;;6.00;;
6205;SDS011;3136;48.788;9.772;2023-06-19T02:10:38;6.80;;;6.10;;
6205;SDS011;3136;48.788;9.772;2023-06-19T02:13:03;6.50;;;5.90;;
6205;SDS011;3136;48.788;9.772;2023-06-19T02:15:29;6.37;;;5.70;;
6205;SDS011;3136;48.788;9.772;2023-06-19T02:17:55;7.60;;;5.90;;
6205;SDS011;3136;48.788;9.772;2023-06-19T02:20:21;6.40;;;5.40;;
6205;SDS011;3136;48.788;9.772;2023-06-19T02:22:49;8.00;;;5.57;;
6205;SDS011;3136;48.788;9.772;2023-06-19T02:25:15;5.93;;;5.23;;
6205;SDS011;3136;48.788;9.772;2023-06-19T02:27:40;6.50;;;5.60;;
6205;SDS011;3136;48.788;9.772;2023-06-19T02:30:06;5.67;;;5.17;;
6205;SDS011;3136;48.788;9.772;2023-06-19T02:32:32;6.20;;;5.60;;
6205;SDS011;3136;48.788;9.772;2023-06-19T02:34:58;6.43;;;5.83;;
6205;SDS011;3136;48.788;9.772;2023-06-19T02:37:23;6.83;;;5.33;;
6205;SDS011;3136;48.788;9.772;2023-06-19T02:39:49;6.17;;;5.43;;
6205;SDS011;3136;48.788;9.772;2023-06-19T02:42:14;6.10;;;5.50;;
6205;SDS011;3136;48.788;9.772;2023-06-19T02:44:40;6.90;;;5.60;;
6205;SDS011;3136;48.788;9.772;2023-06-19T02:47:07;6.60;;;5.67;;
6205;SDS011;3136;48.788;9.772;2023-06-19T02:49:33;6.10;;;5.50;;
6205;SDS011;3136;48.788;9.772;2023-06-19T02:51:58;5.93;;;5.30;;
6205;SDS011;3136;48.788;9.772;2023-06-19T02:54:24;6.70;;;5.63;;
6205;SDS011;3136;48.788;9.772;2023-06-19T02:56:49;6.10;;;5.60;;
6205;SDS011;3136;48.788;9.772;2023-06-19T02:59:15;7.07;;;5.30;;
6205;SDS011;3136;48.788;9.772;2023-06-19T03:01:40;7.43;;;5.70;;
6205;SDS011;3136;48.788;9.772;2023-06-19T03:04:06;6.20;;;5.63;;
6205;SDS011;3136;48.788;9.772;2023-06-19T03:06:31;6.87;;;5.83;;
6205;SDS011;3136;48.788;9.772;2023-06-19T03:09:05;6.70;;;5.50;;
6205;SDS011;3136;48.788;9.772;2023-06-19T03:11:37;8.23;;;5.83;;
6205;SDS011;3136;48.788;9.772;2023-06-19T03:14:06;6.63;;;5.50;;
6205;SDS011;3136;48.788;9.772;2023-06-19T03:16:33;6.53;;;5.70;;
6205;SDS011;3136;48.788;9.772;2023-06-19T03:18:59;6.20;;;5.60;;
6205;SDS011;3136;48.788;9.772;2023-06-19T03:21:25;6.00;;;5.37;;
6205;SDS011;3136;48.788;9.772;2023-06-19T03:23:51;6.70;;;6.10;;
6205;SDS011;3136;48.788;9.772;2023-06-19T03:26:17;6.23;;;5.63;;
6205;SDS011;3136;48.788;9.772;2023-06-19T03:28:43;7.23;;;5.70;;
6205;SDS011;3136;48.788;9.772;2023-06-19T03:31:09;6.93;;;5.97;;
6205;SDS011;3136;48.788;9.772;2023-06-19T03:33:34;7.23;;;5.90;;
6205;SDS011;3136;48.788;9.772;2023-06-19T03:36:00;7.13;;;6.13;;
6205;SDS011;3136;48.788;9.772;2023-06-19T03:38:25;7.80;;;5.67;;
6205;SDS011;3136;48.788;9.772;2023-06-19T03:40:51;7.57;;;5.90;;
6205;SDS011;3136;48.788;9.772;2023-06-19T03:43:16;7.17;;;6.07;;
6205;SDS011;3136;48.788;9.772;2023-06-19T03:45:42;6.60;;;6.00;;
6205;SDS011;3136;48.788;9.772;2023-06-19T03:48:07;9.00;;;6.13;;
6205;SDS011;3136;48.788;9.772;2023-06-19T03:50:33;6.80;;;5.90;;
6205;SDS011;3136;48.788;9.772;2023-06-19T03:52:58;6.53;;;5.90;;
6205;SDS011;3136;48.788;9.772;2023-06-19T03:55:24;7.20;;;6.13;;
6205;SDS011;3136;48.788;9.772;2023-06-19T03:57:50;6.40;;;5.80;;
6205;SDS011;3136;48.788;9.772;2023-06-19T04:00:15;8.33;;;6.23;;
6205;SDS011;3136;48.788;9.772;2023-06-19T04:02:43;7.97;;;6.00;;
6205;SDS011;3136;48.788;9.772;2023-06-19T04:05:11;8.77;;;5.63;;
6205;SDS011;3136;48.788;9.772;2023-06-19T04:07:36;6.43;;;5.03;;
6205;SDS011;3136;48.788;9.772;2023-06-19T04:10:02;6.90;;;4.70;;
6205;SDS011;3136;48.788;9.772;2023-06-19T04:12:28;6.57;;;5.20;;
6205;SDS011;3136;48.788;9.772;2023-06-19T04:14:54;5.80;;;5.23;;
6205;SDS011;3136;48.788;9.772;2023-06-19T04:17:19;7.93;;;4.53;;
6205;SDS011;3136;48.788;9.772;2023-06-19T04:19:45;5.90;;;4.87;;
6205;SDS011;3136;48.788;9.772;2023-06-19T04:22:10;9.03;;;5.30;;
6205;SDS011;3136;48.788;9.772;2023-06-19T04:24:36;5.57;;;4.50;;
6205;SDS011;3136;48.788;9.772;2023-06-19T04:27:01;6.33;;;4.63;;
6205;SDS011;3136;48.788;9.772;2023-06-19T04:29:27;5.40;;;4.90;;
6205;SDS011;3136;48.788;9.772;2023-06-19T04:31:56;6.77;;;4.70;;
6205;SDS011;3136;48.788;9.772;2023-06-19T04:34:23;5.20;;;4.73;;
6205;SDS011;3136;48.788;9.772;2023-06-19T04:36:48;5.73;;;5.00;;
6205;SDS011;3136;48.788;9.772;2023-06-19T04:39:14;7.33;;;5.30;;
6205;SDS011;3136;48.788;9.772;2023-06-19T04:41:40;5.40;;;4.90;;
6205;SDS011;3136;48.788;9.772;2023-06-19T04:44:08;5.13;;;4.73;;
6205;SDS011;3136;48.788;9.772;2023-06-19T04:46:36;5.07;;;4.57;;
6205;SDS011;3136;48.788;9.772;2023-06-19T04:49:02;5.47;;;4.97;;
6205;SDS011;3136;48.788;9.772;2023-06-19T04:51:29;5.10;;;4.60;;
6205;SDS011;3136;48.788;9.772;2023-06-19T04:53:55;5.00;;;4.30;;
6205;SDS011;3136;48.788;9.772;2023-06-19T04:56:21;5.20;;;4.70;;
6205;SDS011;3136;48.788;9.772;2023-06-19T04:58:46;5.70;;;5.10;;
6205;SDS011;3136;48.788;9.772;2023-06-19T05:01:15;6.30;;;4.50;;
6205;SDS011;3136;48.788;9.772;2023-06-19T05:03:42;6.50;;;4.90;;
6205;SDS011;3136;48.788;9.772;2023-06-19T05:06:11;5.03;;;4.33;;
6205;SDS011;3136;48.788;9.772;2023-06-19T05:08:36;6.23;;;4.57;;
6205;SDS011;3136;48.788;9.772;2023-06-19T05:11:02;5.60;;;4.50;;
6205;SDS011;3136;48.788;9.772;2023-06-19T05:13:28;5.32;;;4.40;;
6205;SDS011;3136;48.788;9.772;2023-06-19T05:15:54;4.47;;;4.07;;
6205;SDS011;3136;48.788;9.772;2023-06-19T05:18:21;4.47;;;4.07;;
6205;SDS011;3136;48.788;9.772;2023-06-19T05:20:46;4.47;;;3.90;;
6205;SDS011;3136;48.788;9.772;2023-06-19T05:23:12;5.37;;;4.60;;
6205;SDS011;3136;48.788;9.772;2023-06-19T05:25:37;5.73;;;4.00;;
6205;SDS011;3136;48.788;9.772;2023-06-19T05:28:03;5.00;;;4.27;;
6205;SDS011;3136;48.788;9.772;2023-06-19T05:30:29;7.23;;;4.13;;
6205;SDS011;3136;48.788;9.772;2023-06-19T05:32:54;4.80;;;4.13;;
6205;SDS011;3136;48.788;9.772;2023-06-19T05:35:20;4.40;;;4.00;;
6205;SDS011;3136;48.788;9.772;2023-06-19T05:37:46;5.70;;;4.07;;
6205;SDS011;3136;48.788;9.772;2023-06-19T05:40:12;4.57;;;4.13;;
6205;SDS011;3136;48.788;9.772;2023-06-19T05:42:39;4.63;;;4.10;;
6205;SDS011;3136;48.788;9.772;2023-06-19T05:45:05;4.23;;;3.83;;
6205;SDS011;3136;48.788;9.772;2023-06-19T05:47:31;5.00;;;3.80;;
6205;SDS011;3136;48.788;9.772;2023-06-19T05:49:56;4.30;;;3.90;;
6205;SDS011;3136;48.788;9.772;2023-06-19T05:52:23;4.33;;;3.93;;
6205;SDS011;3136;48.788;9.772;2023-06-19T05:54:49;4.80;;;4.00;;
6205;SDS011;3136;48.788;9.772;2023-06-19T05:57:15;5.17;;;3.93;;
6205;SDS011;3136;48.788;9.772;2023-06-19T05:59:41;4.17;;;3.40;;
6205;SDS011;3136;48.788;9.772;2023-06-19T06:02:07;3.63;;;3.33;;
6205;SDS011;3136;48.788;9.772;2023-06-19T06:04:33;5.10;;;3.53;;
6205;SDS011;3136;48.788;9.772;2023-06-19T06:06:59;4.00;;;3.27;;
6205;SDS011;3136;48.788;9.772;2023-06-19T06:09:25;3.27;;;2.97;;
6205;SDS011;3136;48.788;9.772;2023-06-19T06:11:52;3.70;;;3.40;;
6205;SDS011;3136;48.788;9.772;2023-06-19T06:14:17;3.27;;;2.97;;
6205;SDS011;3136;48.788;9.772;2023-06-19T06:16:43;6.20;;;3.50;;
6205;SDS011;3136;48.788;9.772;2023-06-19T06:19:08;3.43;;;3.13;;
6205;SDS011;3136;48.788;9.772;2023-06-19T06:21:34;3.53;;;3.00;;
6205;SDS011;3136;48.788;9.772;2023-06-19T06:24:00;3.43;;;3.13;;
6205;SDS011;3136;48.788;9.772;2023-06-19T06:26:25;4.07;;;3.03;;
6205;SDS011;3136;48.788;9.772;2023-06-19T06:28:52;6.50;;;3.00;;
6205;SDS011;3136;48.788;9.772;2023-06-19T06:31:18;3.30;;;3.00;;
6205;SDS011;3136;48.788;9.772;2023-06-19T06:33:44;3.60;;;3.10;;
6205;SDS011;3136;48.788;9.772;2023-06-19T06:36:09;4.27;;;2.93;;
6205;SDS011;3136;48.788;9.772;2023-06-19T06:38:35;3.00;;;2.80;;
6205;SDS011;3136;48.788;9.772;2023-06-19T06:41:01;3.10;;;2.90;;
6205;SDS011;3136;48.788;9.772;2023-06-19T06:43:26;3.23;;;2.93;;
6205;SDS011;3136;48.788;9.772;2023-06-19T06:45:52;2.77;;;2.37;;
6205;SDS011;3136;48.788;9.772;2023-06-19T06:48:18;3.20;;;2.70;;
6205;SDS011;3136;48.788;9.772;2023-06-19T06:50:44;2.60;;;2.40;;
6205;SDS011;3136;48.788;9.772;2023-06-19T06:53:09;3.63;;;2.63;;
6205;SDS011;3136;48.788;9.772;2023-06-19T06:55:35;5.40;;;2.60;;
6205;SDS011;3136;48.788;9.772;2023-06-19T06:58:00;5.23;;;2.50;;
6205;SDS011;3136;48.788;9.772;2023-06-19T07:00:26;2.53;;;2.33;;
6205;SDS011;3136;48.788;9.772;2023-06-19T07:02:52;2.50;;;2.30;;
6205;SDS011;3136;48.788;9.772;2023-06-19T07:05:18;2.63;;;2.43;;
6205;SDS011;3136;48.788;9.772;2023-06-19T07:07:44;3.13;;;1.90;;
6205;SDS011;3136;48.788;9.772;2023-06-19T07:10:09;2.23;;;1.93;;
6205;SDS011;3136;48.788;9.772;2023-06-19T07:12:35;2.73;;;2.30;;
6205;SDS011;3136;48.788;9.772;2023-06-19T07:15:08;2.60;;;2.20;;
6205;SDS011;3136;48.788;9.772;2023-06-19T07:17:34;3.40;;;2.50;;
6205;SDS011;3136;48.788;9.772;2023-06-19T07:20:00;3.67;;;2.30;;
6205;SDS011;3136;48.788;9.772;2023-06-19T07:22:25;2.10;;;1.90;;
6205;SDS011;3136;48.788;9.772;2023-06-19T07:24:51;2.43;;;2.23;;
6205;SDS011;3136;48.788;9.772;2023-06-19T07:27:16;2.40;;;1.87;;
6205;SDS011;3136;48.788;9.772;2023-06-19T07:29:43;2.20;;;2.00;;
6205;SDS011;3136;48.788;9.772;2023-06-19T07:32:09;2.30;;;2.10;;
6205;SDS011;3136;48.788;9.772;2023-06-19T07:34:35;2.57;;;1.87;;
6205;SDS011;3136;48.788;9.772;2023-06-19T07:37:01;2.40;;;2.20;;
6205;SDS011;3136;48.788;9.772;2023-06-19T07:39:26;2.10;;;1.90;;
6205;SDS011;3136;48.788;9.772;2023-06-19T07:41:52;1.90;;;1.80;;
6205;SDS011;3136;48.788;9.772;2023-06-19T07:44:17;2.00;;;1.90;;
6205;SDS011;3136;48.788;9.772;2023-06-19T07:46:45;2.40;;;2.00;;
6205;SDS011;3136;48.788;9.772;2023-06-19T07:49:11;2.40;;;1.70;;
6205;SDS011;3136;48.788;9.772;2023-06-19T07:51:36;5.00;;;2.10;;
6205;SDS011;3136;48.788;9.772;2023-06-19T07:54:02;2.30;;;2.10;;
6205;SDS011;3136;48.788;9.772;2023-06-19T07:56:28;2.40;;;2.20;;
6205;SDS011;3136;48.788;9.772;2023-06-19T07:58:53;4.57;;;2.10;;
6205;SDS011;3136;48.788;9.772;2023-06-19T08:01:19;2.30;;;2.10;;
6205;SDS011;3136;48.788;9.772;2023-06-19T08:03:45;2.53;;;2.10;;
6205;SDS011;3136;48.788;9.772;2023-06-19T08:06:11;2.57;;;2.30;;
6205;SDS011;3136;48.788;9.772;2023-06-19T08:08:36;2.43;;;2.23;;
6205;SDS011;3136;48.788;9.772;2023-06-19T08:11:02;2.40;;;2.20;;
6205;SDS011;3136;48.788;9.772;2023-06-19T08:13:28;3.40;;;2.10;;
6205;SDS011;3136;48.788;9.772;2023-06-19T08:15:53;2.87;;;1.93;;
6205;SDS011;3136;48.788;9.772;2023-06-19T08:18:19;2.20;;;2.00;;
6205;SDS011;3136;48.788;9.772;2023-06-19T08:20:44;2.97;;;2.60;;
6205;SDS011;3136;48.788;9.772;2023-06-19T08:23:10;4.07;;;2.40;;
6205;SDS011;3136;48.788;9.772;2023-06-19T08:25:36;3.57;;;2.30;;
6205;SDS011;3136;48.788;9.772;2023-06-19T08:28:01;2.13;;;2.03;;
6205;SDS011;3136;48.788;9.772;2023-06-19T08:30:27;3.30;;;2.00;;
6205;SDS011;3136;48.788;9.772;2023-06-19T08:32:52;5.30;;;2.30;;
6205;SDS011;3136;48.788;9.772;2023-06-19T08:35:18;3.23;;;2.30;;
6205;SDS011;3136;48.788;9.772;2023-06-19T08:37:44;2.20;;;2.00;;
6205;SDS011;3136;48.788;9.772;2023-06-19T08:40:10;4.20;;;2.23;;
6205;SDS011;3136;48.788;9.772;2023-06-19T08:42:37;2.50;;;2.23;;
6205;SDS011;3136;48.788;9.772;2023-06-19T08:45:04;2.50;;;2.30;;
6205;SDS011;3136;48.788;9.772;2023-06-19T08:47:33;2.40;;;2.00;;
6205;SDS011;3136;48.788;9.772;2023-06-19T08:49:59;2.13;;;2.03;;
6205;SDS011;3136;48.788;9.772;2023-06-19T08:52:25;2.30;;;2.10;;
6205;SDS011;3136;48.788;9.772;2023-06-19T08:54:50;2.90;;;2.27;;
6205;SDS011;3136;48.788;9.772;2023-06-19T08:57:17;2.30;;;2.10;;
6205;SDS011;3136;48.788;9.772;2023-06-19T08:59:49;2.20;;;2.00;;
6205;SDS011;3136;48.788;9.772;2023-06-19T09:02:15;3.43;;;2.10;;
6205;SDS011;3136;48.788;9.772;2023-06-19T09:04:41;2.63;;;2.00;;
6205;SDS011;3136;48.788;9.772;2023-06-19T09:07:07;2.30;;;2.10;;
6205;SDS011;3136;48.788;9.772;2023-06-19T09:09:33;2.17;;;1.97;;
6205;SDS011;3136;48.788;9.772;2023-06-19T09:12:03;2.37;;;2.13;;
6205;SDS011;3136;48.788;9.772;2023-06-19T09:17:00;5.50;;;2.27;;
6205;SDS011;3136;48.788;9.772;2023-06-19T09:19:27;2.33;;;2.13;;
6205;SDS011;3136;48.788;9.772;2023-06-19T09:21:52;2.20;;;2.00;;
6205;SDS011;3136;48.788;9.772;2023-06-19T09:24:18;4.27;;;2.03;;
6205;SDS011;3136;48.788;9.772;2023-06-19T09:26:44;2.03;;;1.90;;
6205;SDS011;3136;48.788;9.772;2023-06-19T09:29:10;2.40;;;2.20;;
6205;SDS011;3136;48.788;9.772;2023-06-19T09:31:36;2.30;;;2.10;;
6205;SDS011;3136;48.788;9.772;2023-06-19T09:34:03;3.27;;;2.10;;
6205;SDS011;3136;48.788;9.772;2023-06-19T09:36:29;3.87;;;2.00;;
6205;SDS011;3136;48.788;9.772;2023-06-19T09:38:57;2.17;;;1.97;;
6205;SDS011;3136;48.788;9.772;2023-06-19T09:41:24;2.80;;;2.20;;
6205;SDS011;3136;48.788;9.772;2023-06-19T09:43:51;2.50;;;1.93;;
6205;SDS011;3136;48.788;9.772;2023-06-19T09:46:22;2.30;;;2.10;;
6205;SDS011;3136;48.788;9.772;2023-06-19T09:48:55;2.10;;;1.90;;
6205;SDS011;3136;48.788;9.772;2023-06-19T09:51:30;1.97;;;1.80;;
6205;SDS011;3136;48.788;9.772;2023-06-19T09:53:57;2.13;;;1.60;;
6205;SDS011;3136;48.788;9.772;2023-06-19T09:56:24;3.30;;;1.90;;
6205;SDS011;3136;48.788;9.772;2023-06-19T09:58:52;2.20;;;2.00;;
6205;SDS011;3136;48.788;9.772;2023-06-19T10:01:20;1.53;;;1.43;;
6205;SDS011;3136;48.788;9.772;2023-06-19T10:03:45;2.05;;;1.60;;
6205;SDS011;3136;48.788;9.772;2023-06-19T10:06:16;2.72;;;1.60;;
6205;SDS011;3136;48.788;9.772;2023-06-19T10:08:42;3.33;;;1.73;;
6205;SDS011;3136;48.788;9.772;2023-06-19T10:11:12;3.00;;;1.80;;
6205;SDS011;3136;48.788;9.772;2023-06-19T10:13:39;2.05;;;1.70;;
6205;SDS011;3136;48.788;9.772;2023-06-19T10:16:06;1.80;;;1.70;;
6205;SDS011;3136;48.788;9.772;2023-06-19T10:18:33;2.85;;;1.60;;
6205;SDS011;3136;48.788;9.772;2023-06-19T10:21:17;2.95;;;1.38;;
6205;SDS011;3136;48.788;9.772;2023-06-19T10:23:56;1.77;;;1.67;;
6205;SDS011;3136;48.788;9.772;2023-06-19T10:26:56;1.70;;;1.60;;
6205;SDS011;3136;48.788;9.772;2023-06-19T10:29:22;2.22;;;1.58;;
6205;SDS011;3136;48.788;9.772;2023-06-19T10:31:47;1.88;;;1.77;;
6205;SDS011;3136;48.788;9.772;2023-06-19T10:34:13;1.83;;;1.70;;
6205;SDS011;3136;48.788;9.772;2023-06-19T10:36:39;4.70;;;1.73;;
6205;SDS011;3136;48.788;9.772;2023-06-19T10:39:04;1.80;;;1.70;;
6205;SDS011;3136;48.788;9.772;2023-06-19T10:41:30;1.70;;;1.60;;
6205;SDS011;3136;48.788;9.772;2023-06-19T10:44:00;2.08;;;1.95;;
6205;SDS011;3136;48.788;9.772;2023-06-19T10:46:35;1.77;;;1.65;;
6205;SDS011;3136;48.788;9.772;2023-06-19T10:49:01;1.88;;;1.60;;
6205;SDS011;3136;48.788;9.772;2023-06-19T10:51:29;4.53;;;1.83;;
6205;SDS011;3136;48.788;9.772;2023-06-19T10:53:56;1.63;;;1.52;;
6205;SDS011;3136;48.788;9.772;2023-06-19T10:56:22;2.47;;;1.70;;
6205;SDS011;3136;48.788;9.772;2023-06-19T10:58:56;1.88;;;1.67;;
6205;SDS011;3136;48.788;9.772;2023-06-19T11:04:03;1.67;;;1.58;;
6205;SDS011;3136;48.788;9.772;2023-06-19T11:06:33;1.70;;;1.60;;
6205;SDS011;3136;48.788;9.772;2023-06-19T11:09:00;2.42;;;1.67;;
6205;SDS011;3136;48.788;9.772;2023-06-19T11:14:11;3.15;;;1.80;;
6205;SDS011;3136;48.788;9.772;2023-06-19T11:16:40;1.80;;;1.70;;
6205;SDS011;3136;48.788;9.772;2023-06-19T11:19:15;2.75;;;1.75;;
6205;SDS011;3136;48.788;9.772;2023-06-19T11:21:45;1.80;;;1.70;;
6205;SDS011;3136;48.788;9.772;2023-06-19T11:24:12;2.72;;;1.77;;
6205;SDS011;3136;48.788;9.772;2023-06-19T11:26:39;1.80;;;1.70;;
6205;SDS011;3136;48.788;9.772;2023-06-19T11:29:17;2.10;;;1.75;;
6205;SDS011;3136;48.788;9.772;2023-06-19T11:31:45;1.60;;;1.50;;
6205;SDS011;3136;48.788;9.772;2023-06-19T11:34:12;2.08;;;1.90;;
6205;SDS011;3136;48.788;9.772;2023-06-19T11:36:38;1.75;;;1.65;;
6205;SDS011;3136;48.788;9.772;2023-06-19T11:39:12;1.80;;;1.65;;
6205;SDS011;3136;48.788;9.772;2023-06-19T11:41:40;1.60;;;1.50;;
6205;SDS011;3136;48.788;9.772;2023-06-19T11:44:08;1.63;;;1.52;;
6205;SDS011;3136;48.788;9.772;2023-06-19T11:46:37;2.70;;;1.88;;
6205;SDS011;3136;48.788;9.772;2023-06-19T11:51:34;1.70;;;1.60;;
6205;SDS011;3136;48.788;9.772;2023-06-19T11:54:00;1.65;;;1.55;;
6205;SDS011;3136;48.788;9.772;2023-06-19T11:56:26;2.00;;;1.80;;
6205;SDS011;3136;48.788;9.772;2023-06-19T11:58:52;2.60;;;1.60;;
6205;SDS011;3136;48.788;9.772;2023-06-19T12:01:17;1.90;;;1.80;;
6205;SDS011;3136;48.788;9.772;2023-06-19T12:03:43;2.90;;;1.75;;
6205;SDS011;3136;48.788;9.772;2023-06-19T12:06:08;2.25;;;1.50;;
6205;SDS011;3136;48.788;9.772;2023-06-19T12:08:34;3.83;;;1.58;;
6205;SDS011;3136;48.788;9.772;2023-06-19T12:11:02;2.55;;;1.70;;
6205;SDS011;3136;48.788;9.772;2023-06-19T12:13:28;2.00;;;1.80;;
6205;SDS011;3136;48.788;9.772;2023-06-19T12:15:53;1.80;;;1.70;;
6205;SDS011;3136;48.788;9.772;2023-06-19T12:18:19;2.00;;;1.70;;
6205;SDS011;3136;48.788;9.772;2023-06-19T12:20:44;1.75;;;1.65;;
6205;SDS011;3136;48.788;9.772;2023-06-19T12:23:10;4.13;;;1.80;;
6205;SDS011;3136;48.788;9.772;2023-06-19T12:25:35;1.98;;;1.77;;
6205;SDS011;3136;48.788;9.772;2023-06-19T12:28:01;1.70;;;1.60;;
6205;SDS011;3136;48.788;9.772;2023-06-19T12:30:30;1.80;;;1.70;;
6205;SDS011;3136;48.788;9.772;2023-06-19T12:32:56;1.45;;;1.35;;
6205;SDS011;3136;48.788;9.772;2023-06-19T12:35:21;2.20;;;1.67;;
6205;SDS011;3136;48.788;9.772;2023-06-19T12:37:48;1.95;;;1.75;;
6205;SDS011;3136;48.788;9.772;2023-06-19T12:40:14;1.67;;;1.58;;
6205;SDS011;3136;48.788;9.772;2023-06-19T12:42:39;1.30;;;1.20;;
6205;SDS011;3136;48.788;9.772;2023-06-19T12:45:05;1.70;;;1.60;;
6205;SDS011;3136;48.788;9.772;2023-06-19T12:47:31;2.15;;;1.95;;
6205;SDS011;3136;48.788;9.772;2023-06-19T12:49:57;1.75;;;1.65;;
6205;SDS011;3136;48.788;9.772;2023-06-19T12:52:22;2.08;;;1.83;;
6205;SDS011;3136;48.788;9.772;2023-06-19T12:54:48;2.08;;;1.80;;
6205;SDS011;3136;48.788;9.772;2023-06-19T12:57:14;2.35;;;1.75;;
6205;SDS011;3136;48.788;9.772;2023-06-19T12:59:39;1.85;;;1.75;;
6205;SDS011;3136;48.788;9.772;2023-06-19T13:02:05;2.53;;;1.60;;
6205;SDS011;3136;48.788;9.772;2023-06-19T13:04:30;1.63;;;1.52;;
6205;SDS011;3136;48.788;9.772;2023-06-19T13:06:56;1.98;;;1.48;;
6205;SDS011;3136;48.788;9.772;2023-06-19T13:09:22;2.58;;;1.70;;
6205;SDS011;3136;48.788;9.772;2023-06-19T13:11:48;2.00;;;1.48;;
6205;SDS011;3136;48.788;9.772;2023-06-19T13:14:14;1.92;;;1.83;;
6205;SDS011;3136;48.788;9.772;2023-06-19T13:16:40;2.35;;;1.70;;
6205;SDS011;3136;48.788;9.772;2023-06-19T13:19:06;2.60;;;1.70;;
6205;SDS011;3136;48.788;9.772;2023-06-19T13:21:31;1.65;;;1.55;;
6205;SDS011;3136;48.788;9.772;2023-06-19T13:23:57;1.60;;;1.50;;
6205;SDS011;3136;48.788;9.772;2023-06-19T13:26:22;3.13;;;1.75;;
6205;SDS011;3136;48.788;9.772;2023-06-19T13:28:48;1.50;;;1.40;;
6205;SDS011;3136;48.788;9.772;2023-06-19T13:31:13;1.63;;;1.52;;
6205;SDS011;3136;48.788;9.772;2023-06-19T13:33:39;1.50;;;1.40;;
6205;SDS011;3136;48.788;9.772;2023-06-19T13:36:04;1.85;;;1.58;;
6205;SDS011;3136;48.788;9.772;2023-06-19T13:38:30;1.50;;;1.40;;
6205;SDS011;3136;48.788;9.772;2023-06-19T13:40:56;2.75;;;1.50;;
6205;SDS011;3136;48.788;9.772;2023-06-19T13:43:22;1.63;;;1.45;;
6205;SDS011;3136;48.788;9.772;2023-06-19T13:45:48;1.92;;;1.48;;
6205;SDS011;3136;48.788;9.772;2023-06-19T13:48:14;1.60;;;1.40;;
6205;SDS011;3136;48.788;9.772;2023-06-19T13:50:40;1.88;;;1.77;;
6205;SDS011;3136;48.788;9.772;2023-06-19T13:53:05;1.70;;;1.60;;
6205;SDS011;3136;48.788;9.772;2023-06-19T13:55:31;3.40;;;1.80;;
6205;SDS011;3136;48.788;9.772;2023-06-19T13:57:57;1.70;;;1.60;;
6205;SDS011;3136;48.788;9.772;2023-06-19T14:00:22;2.10;;;1.60;;
6205;SDS011;3136;48.788;9.772;2023-06-19T14:02:48;1.67;;;1.50;;
6205;SDS011;3136;48.788;9.772;2023-06-19T14:05:14;1.80;;;1.70;;
6205;SDS011;3136;48.788;9.772;2023-06-19T14:07:40;1.95;;;1.70;;
6205;SDS011;3136;48.788;9.772;2023-06-19T14:10:07;1.70;;;1.60;;
6205;SDS011;3136;48.788;9.772;2023-06-19T14:12:33;3.40;;;1.60;;
6205;SDS011;3136;48.788;9.772;2023-06-19T14:14:58;1.55;;;1.45;;
6205;SDS011;3136;48.788;9.772;2023-06-19T14:17:24;1.70;;;1.60;;
6205;SDS011;3136;48.788;9.772;2023-06-19T14:19:50;1.95;;;1.70;;
6205;SDS011;3136;48.788;9.772;2023-06-19T14:22:15;2.63;;;1.70;;
6205;SDS011;3136;48.788;9.772;2023-06-19T14:24:42;2.80;;;1.63;;
6205;SDS011;3136;48.788;9.772;2023-06-19T14:27:07;2.35;;;1.80;;
6205;SDS011;3136;48.788;9.772;2023-06-19T14:29:33;1.60;;;1.50;;
6205;SDS011;3136;48.788;9.772;2023-06-19T14:31:58;1.90;;;1.75;;
6205;SDS011;3136;48.788;9.772;2023-06-19T14:34:24;1.98;;;1.88;;
6205;SDS011;3136;48.788;9.772;2023-06-19T14:36:50;2.20;;;1.70;;
6205;SDS011;3136;48.788;9.772;2023-06-19T14:39:15;1.83;;;1.73;;
6205;SDS011;3136;48.788;9.772;2023-06-19T14:41:41;1.80;;;1.70;;
6205;SDS011;3136;48.788;9.772;2023-06-19T14:44:07;1.90;;;1.80;;
6205;SDS011;3136;48.788;9.772;2023-06-19T14:46:32;2.17;;;1.80;;
6205;SDS011;3136;48.788;9.772;2023-06-19T14:48:58;2.20;;;2.00;;
6205;SDS011;3136;48.788;9.772;2023-06-19T14:51:25;2.75;;;1.75;;
6205;SDS011;3136;48.788;9.772;2023-06-19T14:53:51;2.63;;;2.08;;
6205;SDS011;3136;48.788;9.772;2023-06-19T14:56:17;2.13;;;1.98;;
6205;SDS011;3136;48.788;9.772;2023-06-19T14:58:42;2.35;;;1.80;;
6205;SDS011;3136;48.788;9.772;2023-06-19T15:01:08;2.75;;;1.80;;
6205;SDS011;3136;48.788;9.772;2023-06-19T15:03:34;1.92;;;1.83;;
6205;SDS011;3136;48.788;9.772;2023-06-19T15:06:00;2.15;;;1.95;;
6205;SDS011;3136;48.788;9.772;2023-06-19T15:08:26;2.55;;;2.10;;
6205;SDS011;3136;48.788;9.772;2023-06-19T15:10:52;2.63;;;2.00;;
6205;SDS011;3136;48.788;9.772;2023-06-19T15:13:17;2.75;;;2.10;;
6205;SDS011;3136;48.788;9.772;2023-06-19T15:15:43;6.28;;;2.30;;
6205;SDS011;3136;48.788;9.772;2023-06-19T15:18:10;2.45;;;2.10;;
6205;SDS011;3136;48.788;9.772;2023-06-19T15:20:36;2.20;;;2.00;;